createdAt,value
2019-05-16T00:01:25.415Z,1.33
2019-05-16T00:03:54.086Z,0.70
2019-05-16T00:06:22.269Z,1.80
2019-05-16T00:08:50.599Z,2.93
2019-05-16T00:11:19.096Z,4.17
2019-05-16T00:13:48.935Z,1.23
2019-05-16T00:16:18.717Z,0.83
2019-05-16T00:18:48.056Z,1.20
2019-05-16T00:21:17.971Z,1.67
2019-05-16T00:23:48.622Z,0.63
2019-05-16T00:26:19.478Z,1.93
2019-05-16T00:28:48.435Z,0.60
2019-05-16T00:31:18.385Z,1.27
2019-05-16T00:33:48.692Z,0.57
2019-05-16T00:36:18.872Z,0.67
2019-05-16T00:38:48.474Z,2.33
2019-05-16T00:41:17.915Z,3.13
2019-05-16T00:43:48.314Z,3.13
2019-05-16T00:46:19.831Z,1.97
2019-05-16T00:48:48.743Z,2.50
2019-05-16T00:51:18.512Z,1.30
2019-05-16T00:53:48.340Z,1.00
2019-05-16T00:56:18.649Z,1.37
2019-05-16T00:58:48.572Z,2.17
2019-05-16T01:01:18.944Z,1.07
2019-05-16T01:03:48.307Z,1.23
2019-05-16T01:06:22.509Z,3.43
2019-05-16T01:08:48.779Z,1.37
2019-05-16T01:11:18.459Z,1.93
2019-05-16T01:13:48.728Z,1.17
2019-05-16T01:16:18.849Z,1.07
2019-05-16T01:18:48.665Z,1.33
2019-05-16T01:21:18.632Z,1.20
2019-05-16T01:23:48.186Z,0.77
2019-05-16T01:26:18.649Z,2.50
2019-05-16T01:28:48.416Z,3.20
2019-05-16T01:31:19.202Z,2.20
2019-05-16T01:33:48.233Z,0.60
2019-05-16T01:36:26.305Z,3.37
2019-05-16T01:38:48.082Z,1.40
2019-05-16T01:41:18.005Z,1.00
2019-05-16T01:43:48.319Z,1.60
2019-05-16T01:46:18.213Z,1.70
2019-05-16T01:48:48.427Z,2.37
2019-05-16T01:51:18.369Z,2.57
2019-05-16T01:53:48.807Z,1.30
2019-05-16T01:56:17.924Z,1.77
2019-05-16T01:58:48.777Z,1.53
2019-05-16T02:01:19.005Z,4.07
2019-05-16T02:03:48.204Z,1.53
2019-05-16T02:06:18.339Z,1.37
2019-05-16T02:08:48.762Z,1.90
2019-05-16T02:11:18.118Z,1.97
2019-05-16T02:13:48.492Z,1.27
2019-05-16T02:16:18.764Z,2.03
2019-05-16T02:18:48.861Z,2.60
2019-05-16T02:21:18.242Z,2.47
2019-05-16T02:23:51.347Z,5.60
2019-05-16T02:26:19.119Z,1.50
2019-05-16T02:28:50.578Z,1.50
2019-05-16T02:31:17.733Z,1.90
2019-05-16T02:33:46.342Z,2.07
2019-05-16T02:36:14.803Z,1.50
2019-05-16T02:38:43.497Z,1.57
2019-05-16T02:41:13.247Z,2.40
2019-05-16T02:43:42.253Z,1.83
2019-05-16T02:46:12.014Z,1.37
2019-05-16T02:48:41.112Z,0.83
2019-05-16T02:51:11.023Z,2.93
2019-05-16T02:53:41.549Z,0.77
2019-05-16T02:56:12.324Z,2.37
2019-05-16T02:58:44.217Z,2.33
2019-05-16T03:01:11.186Z,1.40
2019-05-16T03:03:40.306Z,1.00
2019-05-16T03:06:11.284Z,1.70
2019-05-16T03:08:41.295Z,2.27
2019-05-16T03:11:11.912Z,1.37
2019-05-16T03:13:42.271Z,4.10
2019-05-16T03:16:12.038Z,1.40
2019-05-16T03:18:41.640Z,1.83
2019-05-16T03:21:11.350Z,2.60
2019-05-16T03:23:41.958Z,1.43
2019-05-16T03:26:11.777Z,2.47
2019-05-16T03:28:41.265Z,1.80
2019-05-16T03:31:14.937Z,2.43
2019-05-16T03:33:49.024Z,1.70
2019-05-16T03:36:14.544Z,2.00
2019-05-16T03:38:41.449Z,2.40
2019-05-16T03:41:11.493Z,2.33
2019-05-16T03:43:41.381Z,1.17
2019-05-16T03:46:11.889Z,2.20
2019-05-16T03:48:40.842Z,3.57
2019-05-16T03:51:11.357Z,2.13
2019-05-16T03:53:40.371Z,1.13
2019-05-16T03:56:11.142Z,2.80
2019-05-16T03:58:41.531Z,3.40
2019-05-16T04:01:11.110Z,1.53
2019-05-16T04:03:41.314Z,3.70
2019-05-16T04:06:11.875Z,1.33
2019-05-16T04:08:41.263Z,1.83
2019-05-16T04:11:11.651Z,1.43
2019-05-16T04:13:41.346Z,1.77
2019-05-16T04:16:11.817Z,3.37
2019-05-16T04:18:42.000Z,0.80
2019-05-16T04:21:11.730Z,1.60
2019-05-16T04:23:41.992Z,2.37
2019-05-16T04:26:11.394Z,2.30
2019-05-16T04:28:41.298Z,1.33
2019-05-16T04:31:10.964Z,2.33
2019-05-16T04:33:41.505Z,0.87
2019-05-16T04:36:10.905Z,1.30
2019-05-16T04:38:45.143Z,1.37
2019-05-16T04:41:11.565Z,4.60
2019-05-16T04:43:41.616Z,1.70
2019-05-16T04:46:11.667Z,1.70
2019-05-16T04:48:41.769Z,1.80
2019-05-16T04:51:10.839Z,2.57
2019-05-16T04:53:42.487Z,3.13
2019-05-16T04:56:11.041Z,2.83
2019-05-16T04:58:40.805Z,6.03
2019-05-16T05:01:11.054Z,2.27
2019-05-16T05:03:40.951Z,1.17
2019-05-16T05:06:11.375Z,2.77
2019-05-16T05:08:50.521Z,2.03
2019-05-16T05:11:10.807Z,3.20
2019-05-16T05:13:41.249Z,2.57
2019-05-16T05:16:10.621Z,3.20
2019-05-16T05:18:40.862Z,1.23
2019-05-16T05:21:11.626Z,1.03
2019-05-16T05:23:40.684Z,1.83
2019-05-16T05:26:10.803Z,1.40
2019-05-16T05:28:40.218Z,1.33
2019-05-16T05:31:10.806Z,0.87
2019-05-16T05:33:41.591Z,1.93
2019-05-16T05:36:12.272Z,1.33
2019-05-16T05:38:40.250Z,0.80
2019-05-16T05:41:10.708Z,0.73
2019-05-16T05:43:39.754Z,1.10
2019-05-16T05:46:10.921Z,3.53
2019-05-16T05:48:40.887Z,0.97
2019-05-16T05:51:11.031Z,2.70
2019-05-16T05:53:40.161Z,1.43
2019-05-16T05:56:11.308Z,2.07
2019-05-16T05:58:40.729Z,1.30
2019-05-16T06:01:11.165Z,1.30
2019-05-16T06:03:39.916Z,1.07
2019-05-16T06:06:10.473Z,1.90
2019-05-16T06:08:40.860Z,2.50
2019-05-16T06:11:10.067Z,2.30
2019-05-16T06:13:40.514Z,3.30
2019-05-16T06:16:10.896Z,1.30
2019-05-16T06:18:39.749Z,2.40
2019-05-16T06:21:08.217Z,0.93
2019-05-16T06:23:36.451Z,2.53
2019-05-16T06:26:04.891Z,1.03
2019-05-16T06:28:33.121Z,1.37
2019-05-16T06:31:02.483Z,0.90
2019-05-16T06:33:31.012Z,1.93
2019-05-16T06:36:00.331Z,2.10
2019-05-16T06:38:30.014Z,2.63
2019-05-16T06:41:00.313Z,1.50
2019-05-16T06:43:30.145Z,1.70
2019-05-16T06:46:00.534Z,0.87
2019-05-16T06:48:30.364Z,1.67
2019-05-16T06:51:02.436Z,1.00
2019-05-16T06:53:29.902Z,1.40
2019-05-16T06:56:00.144Z,0.80
2019-05-16T06:58:30.209Z,2.47
2019-05-16T07:01:00.435Z,2.47
2019-05-16T07:03:30.823Z,2.03
2019-05-16T07:06:00.565Z,2.37
2019-05-16T07:08:31.024Z,1.33
2019-05-16T07:11:00.038Z,1.90
2019-05-16T07:13:30.433Z,1.67
2019-05-16T07:16:00.486Z,2.40
2019-05-16T07:18:31.014Z,2.20
2019-05-16T07:21:00.165Z,2.93
2019-05-16T07:23:29.901Z,2.53
2019-05-16T07:26:00.579Z,2.10
2019-05-16T07:28:30.068Z,3.67
2019-05-16T07:31:02.602Z,3.67
2019-05-16T07:33:31.863Z,0.87
2019-05-16T07:36:00.491Z,1.47
2019-05-16T07:38:30.875Z,2.27
2019-05-16T07:41:00.041Z,1.10
2019-05-16T07:43:30.857Z,5.70
2019-05-16T07:46:00.442Z,1.67
2019-05-16T07:48:31.555Z,1.23
2019-05-16T07:51:00.564Z,3.37
2019-05-16T07:53:32.806Z,1.27
2019-05-16T07:56:00.079Z,3.40
2019-05-16T07:58:31.068Z,3.47
2019-05-16T08:01:06.789Z,5.73
2019-05-16T08:03:30.373Z,1.20
2019-05-16T08:06:01.716Z,2.50
2019-05-16T08:08:31.309Z,1.57
2019-05-16T08:11:01.424Z,1.97
2019-05-16T08:13:30.819Z,1.47
2019-05-16T08:16:01.145Z,1.83
2019-05-16T08:18:30.614Z,1.97
2019-05-16T08:21:01.044Z,2.10
2019-05-16T08:23:30.456Z,2.23
2019-05-16T08:26:01.220Z,1.23
2019-05-16T08:28:30.833Z,2.23
2019-05-16T08:31:00.903Z,3.50
2019-05-16T08:36:04.718Z,4.20
2019-05-16T08:38:30.838Z,1.73
2019-05-16T08:41:08.042Z,1.07
2019-05-16T08:43:31.545Z,1.87
2019-05-16T08:46:01.179Z,1.73
2019-05-16T08:48:31.781Z,1.50
2019-05-16T08:51:02.858Z,2.30
2019-05-16T08:53:31.622Z,2.03
2019-05-16T08:56:02.563Z,1.77
2019-05-16T08:58:33.114Z,1.60
2019-05-16T09:01:02.397Z,1.80
2019-05-16T09:03:32.900Z,2.00
2019-05-16T09:06:02.815Z,3.87
2019-05-16T09:08:31.453Z,2.00
2019-05-16T09:10:31.460Z,4.63
2019-05-16T09:11:04.889Z,4.30
2019-05-16T09:13:30.519Z,2.07
2019-05-16T09:15:58.672Z,2.57
2019-05-16T09:18:28.983Z,2.63
2019-05-16T09:20:58.219Z,2.47
2019-05-16T09:23:26.868Z,3.90
2019-05-16T09:25:58.298Z,1.93
2019-05-16T09:28:28.260Z,1.53
2019-05-16T09:30:57.753Z,2.13
2019-05-16T09:33:27.003Z,4.20
2019-05-16T09:35:57.494Z,3.37
2019-05-16T09:38:28.488Z,5.43
2019-05-16T09:40:56.991Z,3.57
2019-05-16T09:43:28.004Z,5.00
2019-05-16T09:46:03.202Z,4.03
2019-05-16T09:48:27.988Z,6.73
2019-05-16T09:50:57.721Z,3.20
2019-05-16T09:53:27.643Z,2.90
2019-05-16T09:55:57.577Z,2.27
2019-05-16T09:58:27.762Z,2.10
2019-05-16T10:00:57.551Z,2.50
2019-05-16T10:03:27.143Z,5.60
2019-05-16T10:05:57.253Z,2.67
2019-05-16T10:08:26.713Z,2.83
2019-05-16T10:10:57.068Z,2.13
2019-05-16T10:13:27.754Z,2.57
2019-05-16T10:15:56.561Z,5.30
2019-05-16T10:18:27.512Z,1.03
2019-05-16T10:20:59.003Z,3.60
2019-05-16T10:23:25.613Z,2.00
2019-05-16T10:25:53.827Z,2.83
2019-05-16T10:28:22.451Z,1.40
2019-05-16T10:30:50.575Z,3.73
2019-05-16T10:33:19.646Z,1.50
2019-05-16T10:35:48.220Z,1.60
2019-05-16T10:38:18.319Z,2.50
2019-05-16T10:40:47.541Z,3.43
2019-05-16T10:43:17.653Z,1.47
2019-05-16T10:45:46.587Z,2.63
2019-05-16T10:48:17.305Z,4.87
2019-05-16T10:50:47.514Z,2.63
2019-05-16T10:53:33.601Z,1.43
2019-05-16T10:55:47.633Z,3.00
2019-05-16T10:58:32.956Z,2.10
2019-05-16T11:01:07.888Z,2.23
2019-05-16T11:03:17.186Z,1.97
2019-05-16T11:06:01.384Z,3.07
2019-05-16T11:08:16.424Z,3.10
2019-05-16T11:10:44.607Z,4.03
2019-05-16T11:13:13.477Z,3.53
2019-05-16T11:15:42.080Z,2.33
2019-05-16T11:18:10.256Z,2.60
2019-05-16T11:20:38.436Z,5.53
2019-05-16T11:23:07.997Z,3.97
2019-05-16T11:25:36.797Z,8.70
2019-05-16T11:28:07.295Z,3.17
2019-05-16T11:30:37.599Z,4.10
2019-05-16T11:33:07.654Z,4.23
2019-05-16T11:35:38.101Z,3.57
2019-05-16T11:38:07.475Z,3.23
2019-05-16T11:40:35.719Z,3.90
2019-05-16T11:43:11.417Z,3.10
2019-05-16T11:45:36.824Z,2.47
2019-05-16T11:48:05.436Z,3.23
2019-05-16T11:50:33.708Z,3.40
2019-05-16T11:53:02.022Z,3.87
2019-05-16T11:55:33.342Z,3.47
2019-05-16T11:58:00.936Z,2.73
2019-05-16T12:00:30.520Z,3.03
2019-05-16T12:02:59.399Z,4.67
2019-05-16T12:05:27.528Z,2.93
2019-05-16T12:07:57.371Z,3.17
2019-05-16T12:10:27.089Z,3.50
2019-05-16T12:12:56.838Z,2.00
2019-05-16T12:15:27.333Z,4.20
2019-05-16T12:18:03.867Z,3.20
2019-05-16T12:20:27.482Z,6.50
2019-05-16T12:22:55.833Z,3.93
2019-05-16T12:25:23.944Z,3.27
2019-05-16T12:27:52.303Z,3.63
2019-05-16T12:30:20.417Z,2.03
2019-05-16T12:32:48.790Z,2.10
2019-05-16T12:35:17.723Z,3.70
2019-05-16T12:37:48.024Z,5.33
2019-05-16T12:40:16.812Z,3.93
2019-05-16T12:42:47.197Z,6.23
2019-05-16T12:45:16.984Z,3.30
2019-05-16T12:47:47.297Z,5.93
2019-05-16T12:50:18.091Z,3.70
2019-05-16T12:52:48.813Z,5.03
2019-05-16T12:55:17.608Z,6.57
2019-05-16T12:57:48.905Z,3.40
2019-05-16T13:00:19.027Z,4.53
2019-05-16T13:02:47.485Z,4.57
2019-05-16T13:05:17.864Z,8.03
2019-05-16T13:07:47.721Z,5.30
2019-05-16T13:10:17.985Z,7.43
2019-05-16T13:12:46.846Z,5.47
2019-05-16T13:15:18.253Z,3.63
2019-05-16T13:17:48.249Z,5.17
2019-05-16T13:20:17.392Z,5.60
2019-05-16T13:22:47.305Z,4.53
2019-05-16T13:25:18.344Z,6.30
2019-05-16T13:27:47.620Z,5.87
2019-05-16T13:30:29.365Z,6.00
2019-05-16T13:32:59.354Z,4.60
2019-05-16T13:35:27.581Z,6.87
2019-05-16T13:37:58.044Z,7.60
2019-05-16T13:40:27.619Z,10.57
2019-05-16T13:42:57.416Z,5.00
2019-05-16T13:45:27.288Z,11.23
2019-05-16T13:47:57.298Z,6.90
2019-05-16T13:50:27.266Z,5.50
2019-05-16T13:52:58.353Z,5.33
2019-05-16T13:55:27.129Z,5.77
2019-05-16T13:57:55.590Z,6.00
2019-05-16T14:00:27.749Z,8.43
2019-05-16T14:02:55.614Z,7.07
2019-05-16T14:05:26.631Z,7.50
2019-05-16T14:07:54.057Z,7.40
2019-05-16T14:10:22.426Z,4.83
2019-05-16T14:12:50.643Z,5.70
2019-05-16T14:15:19.739Z,6.77
2019-05-16T14:17:48.912Z,6.70
2019-05-16T14:20:18.334Z,7.93
2019-05-16T14:22:46.614Z,4.93
2019-05-16T14:25:15.223Z,6.73
2019-05-16T14:27:43.610Z,7.57
2019-05-16T14:30:13.242Z,5.97
2019-05-16T14:32:43.696Z,11.90
2019-05-16T14:35:12.483Z,5.63
2019-05-16T14:37:42.093Z,5.30
2019-05-16T14:40:10.929Z,4.03
2019-05-16T14:42:39.223Z,7.87
2019-05-16T14:45:16.835Z,10.03
2019-05-16T14:47:47.576Z,5.57
2019-05-16T14:50:17.613Z,3.80
2019-05-16T14:52:47.337Z,5.07
2019-05-16T14:55:18.571Z,6.63
2019-05-16T14:57:48.218Z,5.20
2019-05-16T15:00:18.795Z,4.73
2019-05-16T15:02:48.176Z,7.63
2019-05-16T15:05:18.475Z,6.03
2019-05-16T15:07:48.336Z,4.87
2019-05-16T15:10:19.861Z,5.03
2019-05-16T15:12:48.562Z,5.23
2019-05-16T15:15:24.032Z,4.27
2019-05-16T15:17:51.415Z,5.00
2019-05-16T15:20:19.866Z,3.90
2019-05-16T15:22:48.039Z,5.33
2019-05-16T15:25:17.475Z,4.87
2019-05-16T15:27:47.801Z,4.27
2019-05-16T15:30:17.277Z,7.87
2019-05-16T15:32:48.206Z,5.93
2019-05-16T15:35:18.103Z,11.30
2019-05-16T15:37:48.334Z,7.13
2019-05-16T15:40:17.883Z,6.63
2019-05-16T15:42:46.518Z,6.20
2019-05-16T15:45:17.830Z,5.77
2019-05-16T15:47:46.857Z,5.07
2019-05-16T15:50:18.201Z,4.30
2019-05-16T15:52:47.529Z,5.23
2019-05-16T15:55:17.833Z,7.83
2019-05-16T15:57:47.585Z,5.77
2019-05-16T16:00:29.661Z,5.93
2019-05-16T16:02:57.849Z,6.40
2019-05-16T16:05:26.661Z,7.83
2019-05-16T16:07:55.312Z,5.90
2019-05-16T16:10:37.810Z,5.63
2019-05-16T16:13:07.449Z,4.63
2019-05-16T16:15:49.812Z,6.10
2019-05-16T16:18:08.990Z,7.33
2019-05-16T16:20:37.096Z,7.13
2019-05-16T16:23:06.809Z,5.33
2019-05-16T16:25:35.392Z,6.80
2019-05-16T16:28:07.100Z,4.13
2019-05-16T16:30:37.060Z,7.73
2019-05-16T16:33:20.806Z,4.33
2019-05-16T16:35:37.952Z,5.20
2019-05-16T16:38:07.057Z,7.77
2019-05-16T16:40:37.589Z,6.17
2019-05-16T16:43:07.951Z,4.63
2019-05-16T16:45:35.600Z,12.90
2019-05-16T16:48:03.888Z,5.23
2019-05-16T16:50:32.814Z,6.57
2019-05-16T16:53:01.139Z,8.47
2019-05-16T16:55:29.415Z,8.27
2019-05-16T16:57:59.709Z,7.70
2019-05-16T17:00:28.513Z,5.17
2019-05-16T17:03:03.136Z,6.80
2019-05-16T17:05:26.850Z,5.67
2019-05-16T17:07:57.126Z,6.27
2019-05-16T17:10:27.502Z,5.07
2019-05-16T17:12:57.713Z,6.27
2019-05-16T17:15:27.263Z,6.50
2019-05-16T17:17:57.378Z,10.93
2019-05-16T17:20:25.632Z,9.07
2019-05-16T17:22:53.867Z,11.57
2019-05-16T17:25:22.220Z,9.57
2019-05-16T17:27:50.518Z,9.10
2019-05-16T17:30:21.473Z,10.23
2019-05-16T17:32:50.500Z,9.97
2019-05-16T17:35:19.393Z,11.53
2019-05-16T17:37:47.672Z,10.17
2019-05-16T17:40:17.791Z,8.00
2019-05-16T17:42:47.609Z,13.63
2019-05-16T17:45:18.131Z,11.53
2019-05-16T17:47:46.919Z,9.57
2019-05-16T17:50:17.244Z,10.50
2019-05-16T17:52:47.748Z,12.70
2019-05-16T17:55:17.126Z,10.60
2019-05-16T17:57:45.970Z,13.53
2019-05-16T18:00:24.453Z,11.27
2019-05-16T18:02:46.569Z,10.90
2019-05-16T18:05:17.008Z,9.30
2019-05-16T18:07:47.520Z,9.77
2019-05-16T18:10:18.682Z,11.67
2019-05-16T18:12:48.229Z,9.37
2019-05-16T18:15:22.821Z,9.23
2019-05-16T18:17:51.237Z,11.23
2019-05-16T18:20:22.327Z,10.00
2019-05-16T18:22:49.935Z,11.90
2019-05-16T18:25:18.364Z,9.63
2019-05-16T18:27:46.535Z,13.10
2019-05-16T18:30:16.649Z,7.77
2019-05-16T18:32:45.187Z,13.10
2019-05-16T18:35:13.633Z,14.63
2019-05-16T18:37:41.936Z,15.07
2019-05-16T18:40:10.667Z,10.57
2019-05-16T18:42:38.922Z,12.27
2019-05-16T18:45:09.322Z,15.43
2019-05-16T18:47:37.918Z,11.60
2019-05-16T18:50:08.050Z,11.37
2019-05-16T18:52:37.537Z,10.80
2019-05-16T18:55:08.565Z,14.93
2019-05-16T18:57:37.898Z,13.07
2019-05-16T19:00:10.658Z,10.60
2019-05-16T19:02:37.877Z,13.53
2019-05-16T19:05:08.448Z,11.43
2019-05-16T19:07:37.435Z,11.97
2019-05-16T19:10:08.128Z,16.07
2019-05-16T19:12:37.131Z,11.13
2019-05-16T19:15:07.541Z,10.53
2019-05-16T19:17:36.504Z,12.83
2019-05-16T19:20:06.793Z,13.30
2019-05-16T19:22:37.187Z,13.00
2019-05-16T19:25:06.963Z,11.57
2019-05-16T19:27:37.042Z,15.63
2019-05-16T19:30:06.459Z,18.27
2019-05-16T19:32:34.582Z,18.03
2019-05-16T19:35:03.103Z,20.13
2019-05-16T19:37:31.381Z,16.80
2019-05-16T19:39:59.513Z,16.93
2019-05-16T19:42:29.882Z,13.53
2019-05-16T19:44:58.402Z,16.97
2019-05-16T19:47:35.001Z,22.97
2019-05-16T19:49:57.057Z,17.57
2019-05-16T19:52:26.950Z,16.23
2019-05-16T19:54:56.439Z,18.67
2019-05-16T19:57:26.577Z,19.70
2019-05-16T19:59:56.679Z,18.20
2019-05-16T20:02:27.361Z,20.97
2019-05-16T20:04:56.256Z,20.67
2019-05-16T20:07:26.392Z,20.67
2019-05-16T20:09:54.678Z,22.77
2019-05-16T20:12:22.812Z,22.60
2019-05-16T20:15:04.492Z,24.53
2019-05-16T20:17:22.262Z,20.40
2019-05-16T20:19:50.468Z,20.93
2019-05-16T20:22:18.891Z,23.83
2019-05-16T20:24:47.026Z,22.60
2019-05-16T20:27:17.049Z,22.70
2019-05-16T20:29:47.322Z,21.17
2019-05-16T20:32:16.855Z,19.87
2019-05-16T20:34:46.884Z,23.37
2019-05-16T20:37:17.339Z,24.73
2019-05-16T20:39:46.622Z,23.07
2019-05-16T20:42:16.913Z,25.90
2019-05-16T20:44:46.333Z,23.70
2019-05-16T20:47:17.196Z,23.90
2019-05-16T20:49:47.689Z,23.37
2019-05-16T20:52:17.463Z,23.63
2019-05-16T20:54:46.577Z,25.97
2019-05-16T20:57:17.280Z,27.80
2019-05-16T20:59:46.332Z,28.07
2019-05-16T21:02:16.388Z,27.10
2019-05-16T21:04:46.476Z,25.73
2019-05-16T21:07:17.107Z,31.73
2019-05-16T21:09:45.297Z,30.83
2019-05-16T21:12:13.440Z,27.53
2019-05-16T21:14:41.966Z,28.97
2019-05-16T21:17:10.142Z,30.97
2019-05-16T21:19:39.271Z,32.67
2019-05-16T21:23:00.643Z,29.63
2019-05-16T21:25:29.390Z,29.73
2019-05-16T21:27:57.884Z,31.73
2019-05-16T21:30:27.342Z,29.07
2019-05-16T21:32:56.610Z,33.37
2019-05-16T21:35:26.808Z,33.60
2019-05-16T21:37:55.328Z,37.23
2019-05-16T21:40:26.321Z,36.80
2019-05-16T21:42:58.492Z,38.07
2019-05-16T21:45:28.353Z,33.40
2019-05-16T21:47:56.784Z,36.30
2019-05-16T21:50:27.574Z,34.83
2019-05-16T21:52:56.491Z,35.63
2019-05-16T21:55:27.343Z,37.87
2019-05-16T21:57:57.479Z,32.67
2019-05-16T22:00:37.336Z,32.83
2019-05-16T22:03:05.282Z,33.27
2019-05-16T22:05:33.745Z,36.27
2019-05-16T22:08:03.181Z,35.07
2019-05-16T22:10:32.221Z,30.03
2019-05-16T22:13:02.427Z,34.50
2019-05-16T22:15:30.758Z,35.90
2019-05-16T22:17:59.096Z,35.13
2019-05-16T22:20:28.065Z,35.47
2019-05-16T22:22:57.420Z,31.77
2019-05-16T22:25:27.300Z,31.77
2019-05-16T22:27:57.605Z,33.67
2019-05-16T22:30:27.232Z,34.27
2019-05-16T22:32:55.668Z,29.63
2019-05-16T22:35:24.347Z,34.83
2019-05-16T22:37:56.424Z,31.97
2019-05-16T22:40:22.651Z,31.17
2019-05-16T22:42:50.786Z,29.30
2019-05-16T22:45:21.528Z,30.37
2019-05-16T22:47:49.792Z,31.47
2019-05-16T22:50:18.962Z,31.13
2019-05-16T22:52:47.340Z,35.87
2019-05-16T22:55:17.915Z,31.10
2019-05-16T22:57:47.352Z,29.87
2019-05-16T23:00:22.430Z,27.23
2019-05-16T23:02:50.579Z,28.47
2019-05-16T23:05:19.092Z,27.63
2019-05-16T23:08:01.818Z,30.30
2019-05-16T23:10:18.047Z,33.33
2019-05-16T23:12:46.649Z,27.63
2019-05-16T23:15:17.146Z,29.07
2019-05-16T23:17:46.569Z,25.10
2019-05-16T23:20:17.085Z,27.53
2019-05-16T23:22:46.965Z,23.03
2019-05-16T23:25:17.167Z,25.50
2019-05-16T23:27:47.434Z,21.10
2019-05-16T23:30:16.507Z,22.63
2019-05-16T23:32:47.166Z,24.97
2019-05-16T23:35:15.849Z,24.37
2019-05-16T23:37:46.226Z,21.43
2019-05-16T23:40:14.935Z,17.00
2019-05-16T23:42:43.139Z,20.67
2019-05-16T23:45:13.174Z,22.00
2019-05-16T23:47:41.688Z,19.03
2019-05-16T23:50:10.664Z,19.80
2019-05-16T23:52:39.271Z,14.77
2019-05-16T23:55:08.703Z,16.30
2019-05-16T23:57:37.509Z,17.73
